sensor_id;sensor_type;location;lat;lon;timestamp;P1;durP1;ratioP1;P2;durP2;ratioP2
63378;SDS011;49509;54.996;73.270;2022-10-04T00:00:56;15.60;;;14.20;;
63378;SDS011;49509;54.996;73.270;2022-10-04T00:03:27;14.60;;;13.60;;
63378;SDS011;49509;54.996;73.270;2022-10-04T00:06:00;9.00;;;9.00;;
63378;SDS011;49509;54.996;73.270;2022-10-04T00:08:37;10.20;;;10.20;;
63378;SDS011;49509;54.996;73.270;2022-10-04T00:11:19;5.20;;;5.20;;
63378;SDS011;49509;54.996;73.270;2022-10-04T00:13:51;10.80;;;8.40;;
63378;SDS011;49509;54.996;73.270;2022-10-04T00:16:28;13.40;;;10.20;;
63378;SDS011;49509;54.996;73.270;2022-10-04T00:19:01;11.00;;;10.00;;
63378;SDS011;49509;54.996;73.270;2022-10-04T00:24:29;13.20;;;9.80;;
63378;SDS011;49509;54.996;73.270;2022-10-04T00:40:35;10.00;;;9.60;;
63378;SDS011;49509;54.996;73.270;2022-10-04T00:43:04;15.40;;;11.20;;
63378;SDS011;49509;54.996;73.270;2022-10-04T00:45:51;12.40;;;9.80;;
63378;SDS011;49509;54.996;73.270;2022-10-04T00:48:40;14.00;;;11.40;;
63378;SDS011;49509;54.996;73.270;2022-10-04T00:51:28;11.40;;;9.40;;
63378;SDS011;49509;54.996;73.270;2022-10-04T00:56:50;8.20;;;8.20;;
63378;SDS011;49509;54.996;73.270;2022-10-04T00:59:28;17.80;;;15.00;;
63378;SDS011;49509;54.996;73.270;2022-10-04T01:05:09;13.20;;;11.60;;
63378;SDS011;49509;54.996;73.270;2022-10-04T01:07:48;13.60;;;13.20;;
63378;SDS011;49509;54.996;73.270;2022-10-04T01:10:17;32.20;;;24.40;;
63378;SDS011;49509;54.996;73.270;2022-10-04T01:18:37;42.40;;;39.80;;
63378;SDS011;49509;54.996;73.270;2022-10-04T01:26:50;27.20;;;24.40;;
63378;SDS011;49509;54.996;73.270;2022-10-04T01:29:17;24.40;;;21.40;;
63378;SDS011;49509;54.996;73.270;2022-10-04T01:32:10;18.00;;;15.20;;
63378;SDS011;49509;54.996;73.270;2022-10-04T01:34:38;24.60;;;22.60;;
63378;SDS011;49509;54.996;73.270;2022-10-04T01:37:10;27.20;;;24.40;;
63378;SDS011;49509;54.996;73.270;2022-10-04T01:39:40;20.25;;;19.00;;
63378;SDS011;49509;54.996;73.270;2022-10-04T01:42:23;18.25;;;17.00;;
63378;SDS011;49509;54.996;73.270;2022-10-04T01:45:00;12.20;;;10.00;;
63378;SDS011;49509;54.996;73.270;2022-10-04T01:47:36;16.25;;;11.00;;
63378;SDS011;49509;54.996;73.270;2022-10-04T01:50:40;11.25;;;11.25;;
63378;SDS011;49509;54.996;73.270;2022-10-04T01:53:20;18.50;;;15.00;;
63378;SDS011;49509;54.996;73.270;2022-10-04T01:55:50;11.00;;;11.00;;
63378;SDS011;49509;54.996;73.270;2022-10-04T01:58:48;21.50;;;16.50;;
63378;SDS011;49509;54.996;73.270;2022-10-04T02:04:17;22.40;;;17.20;;
63378;SDS011;49509;54.996;73.270;2022-10-04T02:06:48;10.60;;;10.60;;
63378;SDS011;49509;54.996;73.270;2022-10-04T02:09:25;20.60;;;16.00;;
63378;SDS011;49509;54.996;73.270;2022-10-04T02:11:53;15.40;;;15.00;;
63378;SDS011;49509;54.996;73.270;2022-10-04T02:14:21;24.40;;;22.20;;
63378;SDS011;49509;54.996;73.270;2022-10-04T02:16:56;18.25;;;16.00;;
63378;SDS011;49509;54.996;73.270;2022-10-04T02:19:31;21.60;;;21.20;;
63378;SDS011;49509;54.996;73.270;2022-10-04T02:22:01;18.80;;;17.40;;
63378;SDS011;49509;54.996;73.270;2022-10-04T02:24:59;19.20;;;16.40;;
63378;SDS011;49509;54.996;73.270;2022-10-04T02:27:27;26.40;;;24.00;;
63378;SDS011;49509;54.996;73.270;2022-10-04T02:30:16;22.60;;;19.80;;
63378;SDS011;49509;54.996;73.270;2022-10-04T02:32:51;21.60;;;20.00;;
63378;SDS011;49509;54.996;73.270;2022-10-04T02:35:27;16.25;;;12.25;;
63378;SDS011;49509;54.996;73.270;2022-10-04T02:38:08;18.00;;;16.50;;
63378;SDS011;49509;54.996;73.270;2022-10-04T02:40:46;17.50;;;17.50;;
63378;SDS011;49509;54.996;73.270;2022-10-04T02:43:21;16.75;;;16.00;;
63378;SDS011;49509;54.996;73.270;2022-10-04T02:51:23;23.00;;;21.40;;
63378;SDS011;49509;54.996;73.270;2022-10-04T02:53:59;23.75;;;19.50;;
63378;SDS011;49509;54.996;73.270;2022-10-04T02:56:27;17.50;;;15.50;;
63378;SDS011;49509;54.996;73.270;2022-10-04T02:58:59;16.75;;;14.50;;
63378;SDS011;49509;54.996;73.270;2022-10-04T03:01:47;16.50;;;13.75;;
63378;SDS011;49509;54.996;73.270;2022-10-04T03:04:15;18.00;;;17.25;;
63378;SDS011;49509;54.996;73.270;2022-10-04T03:06:45;18.25;;;15.50;;
63378;SDS011;49509;54.996;73.270;2022-10-04T03:09:18;14.00;;;11.00;;
63378;SDS011;49509;54.996;73.270;2022-10-04T03:12:12;14.00;;;13.25;;
63378;SDS011;49509;54.996;73.270;2022-10-04T03:14:45;10.50;;;9.75;;
63378;SDS011;49509;54.996;73.270;2022-10-04T03:17:15;12.25;;;12.00;;
63378;SDS011;49509;54.996;73.270;2022-10-04T03:20:06;11.25;;;10.00;;
63378;SDS011;49509;54.996;73.270;2022-10-04T03:22:53;13.50;;;10.50;;
63378;SDS011;49509;54.996;73.270;2022-10-04T03:25:27;11.25;;;9.75;;
63378;SDS011;49509;54.996;73.270;2022-10-04T03:28:00;11.75;;;11.00;;
63378;SDS011;49509;54.996;73.270;2022-10-04T03:30:36;9.50;;;9.50;;
63378;SDS011;49509;54.996;73.270;2022-10-04T03:33:06;11.00;;;9.00;;
63378;SDS011;49509;54.996;73.270;2022-10-04T03:35:35;11.50;;;10.50;;
63378;SDS011;49509;54.996;73.270;2022-10-04T03:38:04;5.25;;;5.25;;
63378;SDS011;49509;54.996;73.270;2022-10-04T03:40:33;9.75;;;9.00;;
63378;SDS011;49509;54.996;73.270;2022-10-04T03:43:03;10.75;;;10.75;;
63378;SDS011;49509;54.996;73.270;2022-10-04T03:46:00;9.25;;;8.50;;
63378;SDS011;49509;54.996;73.270;2022-10-04T03:48:29;9.75;;;9.50;;
63378;SDS011;49509;54.996;73.270;2022-10-04T03:51:01;7.25;;;7.25;;
63378;SDS011;49509;54.996;73.270;2022-10-04T03:53:33;8.25;;;8.25;;
63378;SDS011;49509;54.996;73.270;2022-10-04T03:56:08;8.00;;;8.00;;
63378;SDS011;49509;54.996;73.270;2022-10-04T03:58:41;6.50;;;6.50;;
63378;SDS011;49509;54.996;73.270;2022-10-04T04:01:16;7.00;;;7.00;;
63378;SDS011;49509;54.996;73.270;2022-10-04T04:06:23;4.75;;;3.00;;
63378;SDS011;49509;54.996;73.270;2022-10-04T04:08:54;8.00;;;8.00;;
63378;SDS011;49509;54.996;73.270;2022-10-04T04:11:25;7.00;;;5.75;;
63378;SDS011;49509;54.996;73.270;2022-10-04T04:20:05;9.00;;;6.00;;
63378;SDS011;49509;54.996;73.270;2022-10-04T04:22:38;4.50;;;4.50;;
63378;SDS011;49509;54.996;73.270;2022-10-04T04:25:07;6.75;;;5.25;;
63378;SDS011;49509;54.996;73.270;2022-10-04T04:27:43;5.25;;;5.25;;
63378;SDS011;49509;54.996;73.270;2022-10-04T04:30:16;9.50;;;7.00;;
63378;SDS011;49509;54.996;73.270;2022-10-04T04:32:49;9.25;;;7.00;;
63378;SDS011;49509;54.996;73.270;2022-10-04T04:35:43;4.75;;;4.00;;
63378;SDS011;49509;54.996;73.270;2022-10-04T04:38:18;9.75;;;6.75;;
63378;SDS011;49509;54.996;73.270;2022-10-04T04:40:53;4.00;;;4.00;;
63378;SDS011;49509;54.996;73.270;2022-10-04T04:43:28;6.00;;;6.00;;
63378;SDS011;49509;54.996;73.270;2022-10-04T04:45:57;6.75;;;6.50;;
63378;SDS011;49509;54.996;73.270;2022-10-04T04:48:46;8.75;;;8.75;;
63378;SDS011;49509;54.996;73.270;2022-10-04T04:52:30;8.25;;;7.25;;
63378;SDS011;49509;54.996;73.270;2022-10-04T04:55:39;6.00;;;6.00;;
63378;SDS011;49509;54.996;73.270;2022-10-04T04:58:09;6.00;;;6.00;;
63378;SDS011;49509;54.996;73.270;2022-10-04T05:00:42;6.25;;;4.50;;
63378;SDS011;49509;54.996;73.270;2022-10-04T05:03:16;4.00;;;4.00;;
63378;SDS011;49509;54.996;73.270;2022-10-04T05:05:45;5.75;;;5.00;;
63378;SDS011;49509;54.996;73.270;2022-10-04T05:08:23;5.75;;;4.25;;
63378;SDS011;49509;54.996;73.270;2022-10-04T05:16:22;5.50;;;5.50;;
63378;SDS011;49509;54.996;73.270;2022-10-04T05:18:58;5.50;;;4.50;;
63378;SDS011;49509;54.996;73.270;2022-10-04T05:21:31;6.75;;;6.25;;
63378;SDS011;49509;54.996;73.270;2022-10-04T05:24:09;3.50;;;3.50;;
63378;SDS011;49509;54.996;73.270;2022-10-04T05:26:44;6.25;;;6.25;;
63378;SDS011;49509;54.996;73.270;2022-10-04T05:29:17;4.25;;;4.25;;
63378;SDS011;49509;54.996;73.270;2022-10-04T05:32:36;4.25;;;4.00;;
63378;SDS011;49509;54.996;73.270;2022-10-04T05:34:55;7.25;;;5.75;;
63378;SDS011;49509;54.996;73.270;2022-10-04T05:42:42;5.50;;;5.50;;
63378;SDS011;49509;54.996;73.270;2022-10-04T05:47:53;6.00;;;5.00;;
63378;SDS011;49509;54.996;73.270;2022-10-04T05:50:45;4.75;;;4.75;;
63378;SDS011;49509;54.996;73.270;2022-10-04T06:04:15;6.00;;;5.75;;
63378;SDS011;49509;54.996;73.270;2022-10-04T06:06:53;3.50;;;3.50;;
63378;SDS011;49509;54.996;73.270;2022-10-04T06:17:19;8.00;;;4.00;;
63378;SDS011;49509;54.996;73.270;2022-10-04T06:22:46;6.00;;;5.00;;
63378;SDS011;49509;54.996;73.270;2022-10-04T06:28:23;3.00;;;3.00;;
63378;SDS011;49509;54.996;73.270;2022-10-04T06:39:19;7.25;;;6.00;;
63378;SDS011;49509;54.996;73.270;2022-10-04T06:47:39;5.00;;;5.00;;
63378;SDS011;49509;54.996;73.270;2022-10-04T06:50:24;8.75;;;4.75;;
63378;SDS011;49509;54.996;73.270;2022-10-04T07:10:07;6.25;;;5.75;;
63378;SDS011;49509;54.996;73.270;2022-10-04T07:12:44;5.25;;;5.25;;
63378;SDS011;49509;54.996;73.270;2022-10-04T07:15:18;5.25;;;3.75;;
63378;SDS011;49509;54.996;73.270;2022-10-04T07:18:02;5.25;;;5.25;;
63378;SDS011;49509;54.996;73.270;2022-10-04T07:20:32;8.50;;;5.25;;
63378;SDS011;49509;54.996;73.270;2022-10-04T07:23:40;7.25;;;4.50;;
63378;SDS011;49509;54.996;73.270;2022-10-04T07:26:13;6.75;;;5.50;;
63378;SDS011;49509;54.996;73.270;2022-10-04T07:28:46;4.75;;;4.75;;
63378;SDS011;49509;54.996;73.270;2022-10-04T07:31:36;7.25;;;5.75;;
63378;SDS011;49509;54.996;73.270;2022-10-04T07:37:08;7.75;;;6.75;;
63378;SDS011;49509;54.996;73.270;2022-10-04T07:39:43;6.75;;;6.00;;
63378;SDS011;49509;54.996;73.270;2022-10-04T07:42:47;6.50;;;5.25;;
63378;SDS011;49509;54.996;73.270;2022-10-04T07:47:50;5.00;;;5.00;;
63378;SDS011;49509;54.996;73.270;2022-10-04T07:53:30;8.50;;;7.00;;
63378;SDS011;49509;54.996;73.270;2022-10-04T07:58:50;7.50;;;6.75;;
63378;SDS011;49509;54.996;73.270;2022-10-04T08:06:57;9.75;;;6.00;;
63378;SDS011;49509;54.996;73.270;2022-10-04T08:21:38;7.00;;;7.00;;
63378;SDS011;49509;54.996;73.270;2022-10-04T08:24:15;4.75;;;4.25;;
63378;SDS011;49509;54.996;73.270;2022-10-04T08:27:08;5.50;;;5.00;;
63378;SDS011;49509;54.996;73.270;2022-10-04T08:51:42;39.75;;;33.50;;
63378;SDS011;49509;54.996;73.270;2022-10-04T09:00:45;47.25;;;35.25;;
63378;SDS011;49509;54.996;73.270;2022-10-04T09:03:49;41.75;;;33.00;;
63378;SDS011;49509;54.996;73.270;2022-10-04T09:06:20;29.75;;;27.50;;
63378;SDS011;49509;54.996;73.270;2022-10-04T09:09:28;22.50;;;20.50;;
63378;SDS011;49509;54.996;73.270;2022-10-04T09:17:43;14.75;;;13.25;;
63378;SDS011;49509;54.996;73.270;2022-10-04T09:23:07;9.75;;;9.25;;
63378;SDS011;49509;54.996;73.270;2022-10-04T09:50:29;8.25;;;6.00;;
63378;SDS011;49509;54.996;73.270;2022-10-04T10:04:20;5.50;;;5.50;;
63378;SDS011;49509;54.996;73.270;2022-10-04T10:09:23;5.00;;;5.00;;
63378;SDS011;49509;54.996;73.270;2022-10-04T10:15:41;9.75;;;8.00;;
63378;SDS011;49509;54.996;73.270;2022-10-04T10:23:54;8.00;;;7.50;;
63378;SDS011;49509;54.996;73.270;2022-10-04T10:26:43;8.50;;;6.75;;
63378;SDS011;49509;54.996;73.270;2022-10-04T10:34:47;9.75;;;9.00;;
63378;SDS011;49509;54.996;73.270;2022-10-04T10:40:40;6.75;;;5.50;;
63378;SDS011;49509;54.996;73.270;2022-10-04T10:48:34;7.75;;;6.75;;
63378;SDS011;49509;54.996;73.270;2022-10-04T11:10:25;12.25;;;11.25;;
63378;SDS011;49509;54.996;73.270;2022-10-04T11:16:05;7.25;;;6.25;;
63378;SDS011;49509;54.996;73.270;2022-10-04T11:21:59;5.25;;;4.00;;
63378;SDS011;49509;54.996;73.270;2022-10-04T11:24:58;10.00;;;8.50;;
63378;SDS011;49509;54.996;73.270;2022-10-04T11:30:07;10.75;;;7.25;;
63378;SDS011;49509;54.996;73.270;2022-10-04T11:32:55;10.25;;;7.00;;
63378;SDS011;49509;54.996;73.270;2022-10-04T11:48:44;10.00;;;8.75;;
63378;SDS011;49509;54.996;73.270;2022-10-04T11:59:09;7.25;;;7.25;;
63378;SDS011;49509;54.996;73.270;2022-10-04T12:06:51;9.00;;;7.00;;
63378;SDS011;49509;54.996;73.270;2022-10-04T12:24:02;5.25;;;5.25;;
63378;SDS011;49509;54.996;73.270;2022-10-04T12:31:59;7.25;;;6.00;;
63378;SDS011;49509;54.996;73.270;2022-10-04T12:48:29;5.50;;;5.00;;
63378;SDS011;49509;54.996;73.270;2022-10-04T12:56:54;8.25;;;8.25;;
63378;SDS011;49509;54.996;73.270;2022-10-04T13:08:35;7.00;;;6.25;;
63378;SDS011;49509;54.996;73.270;2022-10-04T13:22:35;7.50;;;6.75;;
63378;SDS011;49509;54.996;73.270;2022-10-04T13:27:49;7.00;;;7.00;;
63378;SDS011;49509;54.996;73.270;2022-10-04T13:30:55;10.50;;;7.25;;
63378;SDS011;49509;54.996;73.270;2022-10-04T13:36:10;10.25;;;9.75;;
63378;SDS011;49509;54.996;73.270;2022-10-04T13:38:51;7.25;;;6.50;;
63378;SDS011;49509;54.996;73.270;2022-10-04T13:54:15;9.75;;;7.75;;
63378;SDS011;49509;54.996;73.270;2022-10-04T14:00:25;8.00;;;7.50;;
63378;SDS011;49509;54.996;73.270;2022-10-04T14:03:06;10.00;;;9.00;;
63378;SDS011;49509;54.996;73.270;2022-10-04T14:08:37;6.00;;;6.00;;
63378;SDS011;49509;54.996;73.270;2022-10-04T14:11:41;9.50;;;7.25;;
63378;SDS011;49509;54.996;73.270;2022-10-04T14:14:19;8.75;;;8.00;;
63378;SDS011;49509;54.996;73.270;2022-10-04T14:23:10;7.75;;;7.25;;
63378;SDS011;49509;54.996;73.270;2022-10-04T14:26:11;11.00;;;10.25;;
63378;SDS011;49509;54.996;73.270;2022-10-04T14:34:31;14.00;;;11.50;;
63378;SDS011;49509;54.996;73.270;2022-10-04T14:42:22;14.75;;;12.25;;
63378;SDS011;49509;54.996;73.270;2022-10-04T14:48:08;11.00;;;10.25;;
63378;SDS011;49509;54.996;73.270;2022-10-04T15:06:57;5.50;;;5.00;;
63378;SDS011;49509;54.996;73.270;2022-10-04T15:23:53;5.25;;;4.25;;
63378;SDS011;49509;54.996;73.270;2022-10-04T15:37:42;5.00;;;5.00;;
63378;SDS011;49509;54.996;73.270;2022-10-04T15:40:51;5.50;;;5.50;;
63378;SDS011;49509;54.996;73.270;2022-10-04T15:43:35;5.00;;;4.75;;
63378;SDS011;49509;54.996;73.270;2022-10-04T15:48:51;5.00;;;5.00;;
63378;SDS011;49509;54.996;73.270;2022-10-04T15:54:14;6.00;;;5.00;;
63378;SDS011;49509;54.996;73.270;2022-10-04T15:56:47;7.50;;;7.50;;
63378;SDS011;49509;54.996;73.270;2022-10-04T16:21:51;8.25;;;7.50;;
63378;SDS011;49509;54.996;73.270;2022-10-04T16:35:05;5.50;;;5.50;;
63378;SDS011;49509;54.996;73.270;2022-10-04T16:56:12;4.50;;;4.25;;
63378;SDS011;49509;54.996;73.270;2022-10-04T16:58:49;6.00;;;6.00;;
63378;SDS011;49509;54.996;73.270;2022-10-04T17:01:24;4.50;;;4.50;;
63378;SDS011;49509;54.996;73.270;2022-10-04T17:04:14;4.50;;;4.00;;
63378;SDS011;49509;54.996;73.270;2022-10-04T17:09:47;7.00;;;7.00;;
63378;SDS011;49509;54.996;73.270;2022-10-04T17:17:53;5.00;;;5.00;;
63378;SDS011;49509;54.996;73.270;2022-10-04T17:28:33;6.00;;;4.75;;
63378;SDS011;49509;54.996;73.270;2022-10-04T17:34:28;5.00;;;4.50;;
63378;SDS011;49509;54.996;73.270;2022-10-04T17:37:15;5.00;;;5.00;;
63378;SDS011;49509;54.996;73.270;2022-10-04T17:42:31;8.75;;;7.00;;
63378;SDS011;49509;54.996;73.270;2022-10-04T17:48:28;8.25;;;7.00;;
63378;SDS011;49509;54.996;73.270;2022-10-04T17:54:09;6.50;;;6.50;;
63378;SDS011;49509;54.996;73.270;2022-10-04T17:59:38;7.00;;;6.00;;
63378;SDS011;49509;54.996;73.270;2022-10-04T18:04:52;6.00;;;3.50;;
63378;SDS011;49509;54.996;73.270;2022-10-04T18:07:32;5.50;;;5.50;;
63378;SDS011;49509;54.996;73.270;2022-10-04T18:10:34;5.00;;;5.00;;
63378;SDS011;49509;54.996;73.270;2022-10-04T18:18:29;8.50;;;6.25;;
63378;SDS011;49509;54.996;73.270;2022-10-04T18:21:17;6.75;;;6.00;;
63378;SDS011;49509;54.996;73.270;2022-10-04T18:26:22;5.50;;;5.50;;
63378;SDS011;49509;54.996;73.270;2022-10-04T18:28:50;8.50;;;7.75;;
63378;SDS011;49509;54.996;73.270;2022-10-04T18:31:38;7.00;;;6.75;;
63378;SDS011;49509;54.996;73.270;2022-10-04T18:39:20;8.25;;;8.25;;
63378;SDS011;49509;54.996;73.270;2022-10-04T18:41:57;7.75;;;7.25;;
63378;SDS011;49509;54.996;73.270;2022-10-04T18:44:39;6.50;;;6.00;;
63378;SDS011;49509;54.996;73.270;2022-10-04T18:47:15;6.00;;;6.00;;
63378;SDS011;49509;54.996;73.270;2022-10-04T18:49:59;6.75;;;6.75;;
63378;SDS011;49509;54.996;73.270;2022-10-04T18:53:03;7.25;;;7.25;;
63378;SDS011;49509;54.996;73.270;2022-10-04T18:58:12;8.00;;;5.25;;
63378;SDS011;49509;54.996;73.270;2022-10-04T19:20:38;8.50;;;8.50;;
63378;SDS011;49509;54.996;73.270;2022-10-04T19:28:48;6.00;;;6.00;;
63378;SDS011;49509;54.996;73.270;2022-10-04T19:34:10;8.00;;;6.50;;
63378;SDS011;49509;54.996;73.270;2022-10-04T19:36:49;6.00;;;6.00;;
63378;SDS011;49509;54.996;73.270;2022-10-04T19:39:36;13.50;;;11.00;;
63378;SDS011;49509;54.996;73.270;2022-10-04T19:53:56;14.75;;;12.75;;
63378;SDS011;49509;54.996;73.270;2022-10-04T19:56:34;14.50;;;12.25;;
63378;SDS011;49509;54.996;73.270;2022-10-04T19:59:06;12.75;;;11.00;;
63378;SDS011;49509;54.996;73.270;2022-10-04T20:01:36;14.25;;;11.75;;
63378;SDS011;49509;54.996;73.270;2022-10-04T20:04:15;9.75;;;7.50;;
63378;SDS011;49509;54.996;73.270;2022-10-04T20:07:25;9.25;;;9.00;;
63378;SDS011;49509;54.996;73.270;2022-10-04T20:13:03;10.50;;;9.25;;
63378;SDS011;49509;54.996;73.270;2022-10-04T20:26:07;7.50;;;7.50;;
63378;SDS011;49509;54.996;73.270;2022-10-04T20:28:39;7.50;;;6.00;;
63378;SDS011;49509;54.996;73.270;2022-10-04T20:45:46;5.25;;;5.00;;
63378;SDS011;49509;54.996;73.270;2022-10-04T20:48:24;7.00;;;6.50;;
63378;SDS011;49509;54.996;73.270;2022-10-04T20:50:54;5.75;;;5.25;;
63378;SDS011;49509;54.996;73.270;2022-10-04T20:53:27;8.00;;;7.75;;
63378;SDS011;49509;54.996;73.270;2022-10-04T20:56:08;10.50;;;10.50;;
63378;SDS011;49509;54.996;73.270;2022-10-04T20:58:35;13.25;;;9.00;;
63378;SDS011;49509;54.996;73.270;2022-10-04T21:01:32;12.50;;;11.00;;
63378;SDS011;49509;54.996;73.270;2022-10-04T21:04:19;12.50;;;11.00;;
63378;SDS011;49509;54.996;73.270;2022-10-04T21:07:24;11.50;;;8.00;;
63378;SDS011;49509;54.996;73.270;2022-10-04T21:10:05;9.75;;;9.75;;
63378;SDS011;49509;54.996;73.270;2022-10-04T21:15:05;8.25;;;7.75;;
63378;SDS011;49509;54.996;73.270;2022-10-04T21:17:35;8.00;;;8.00;;
63378;SDS011;49509;54.996;73.270;2022-10-04T21:20:13;9.75;;;8.75;;
63378;SDS011;49509;54.996;73.270;2022-10-04T21:22:44;9.50;;;8.75;;
63378;SDS011;49509;54.996;73.270;2022-10-04T21:25:28;8.25;;;7.25;;
63378;SDS011;49509;54.996;73.270;2022-10-04T21:30:46;8.00;;;6.25;;
63378;SDS011;49509;54.996;73.270;2022-10-04T21:33:14;7.25;;;6.50;;
63378;SDS011;49509;54.996;73.270;2022-10-04T21:36:06;6.50;;;5.75;;
63378;SDS011;49509;54.996;73.270;2022-10-04T21:38:33;6.50;;;5.50;;
63378;SDS011;49509;54.996;73.270;2022-10-04T21:41:06;5.50;;;5.00;;
63378;SDS011;49509;54.996;73.270;2022-10-04T21:43:44;8.25;;;8.25;;
63378;SDS011;49509;54.996;73.270;2022-10-04T21:46:12;5.25;;;5.25;;
63378;SDS011;49509;54.996;73.270;2022-10-04T21:48:41;5.50;;;4.75;;
63378;SDS011;49509;54.996;73.270;2022-10-04T21:51:14;7.00;;;6.00;;
63378;SDS011;49509;54.996;73.270;2022-10-04T21:53:43;5.00;;;5.00;;
63378;SDS011;49509;54.996;73.270;2022-10-04T21:56:13;6.75;;;5.50;;
63378;SDS011;49509;54.996;73.270;2022-10-04T21:59:08;4.25;;;4.25;;
63378;SDS011;49509;54.996;73.270;2022-10-04T22:01:37;8.25;;;6.50;;
63378;SDS011;49509;54.996;73.270;2022-10-04T22:04:05;7.50;;;7.00;;
63378;SDS011;49509;54.996;73.270;2022-10-04T22:06:31;8.50;;;6.00;;
63378;SDS011;49509;54.996;73.270;2022-10-04T22:09:00;7.00;;;6.00;;
63378;SDS011;49509;54.996;73.270;2022-10-04T22:11:37;11.75;;;8.50;;
63378;SDS011;49509;54.996;73.270;2022-10-04T22:14:05;9.00;;;7.75;;
63378;SDS011;49509;54.996;73.270;2022-10-04T22:16:31;6.00;;;6.00;;
63378;SDS011;49509;54.996;73.270;2022-10-04T22:19:03;7.25;;;7.25;;
63378;SDS011;49509;54.996;73.270;2022-10-04T22:21:30;7.00;;;7.00;;
63378;SDS011;49509;54.996;73.270;2022-10-04T22:23:57;10.25;;;8.00;;
63378;SDS011;49509;54.996;73.270;2022-10-04T22:26:25;8.75;;;8.00;;
63378;SDS011;49509;54.996;73.270;2022-10-04T22:29:08;7.75;;;7.75;;
63378;SDS011;49509;54.996;73.270;2022-10-04T22:31:37;8.50;;;7.00;;
63378;SDS011;49509;54.996;73.270;2022-10-04T22:34:07;8.50;;;8.00;;
63378;SDS011;49509;54.996;73.270;2022-10-04T22:36:37;5.00;;;4.00;;
63378;SDS011;49509;54.996;73.270;2022-10-04T22:44:11;7.50;;;7.50;;
63378;SDS011;49509;54.996;73.270;2022-10-04T22:46:40;10.50;;;8.00;;
63378;SDS011;49509;54.996;73.270;2022-10-04T22:49:09;8.50;;;8.50;;
63378;SDS011;49509;54.996;73.270;2022-10-04T22:51:38;7.25;;;7.25;;
63378;SDS011;49509;54.996;73.270;2022-10-04T22:54:11;7.25;;;6.75;;
63378;SDS011;49509;54.996;73.270;2022-10-04T22:56:38;6.50;;;6.50;;
63378;SDS011;49509;54.996;73.270;2022-10-04T22:59:19;8.25;;;7.50;;
63378;SDS011;49509;54.996;73.270;2022-10-04T23:01:47;9.00;;;6.00;;
63378;SDS011;49509;54.996;73.270;2022-10-04T23:04:20;6.50;;;6.50;;
63378;SDS011;49509;54.996;73.270;2022-10-04T23:07:13;6.50;;;5.50;;
63378;SDS011;49509;54.996;73.270;2022-10-04T23:09:39;10.00;;;7.75;;
63378;SDS011;49509;54.996;73.270;2022-10-04T23:12:08;9.00;;;7.75;;
63378;SDS011;49509;54.996;73.270;2022-10-04T23:14:37;7.00;;;6.00;;
63378;SDS011;49509;54.996;73.270;2022-10-04T23:19:56;7.25;;;7.25;;
63378;SDS011;49509;54.996;73.270;2022-10-04T23:22:27;7.25;;;7.25;;
63378;SDS011;49509;54.996;73.270;2022-10-04T23:24:55;7.00;;;6.50;;
63378;SDS011;49509;54.996;73.270;2022-10-04T23:27:29;9.25;;;8.00;;
63378;SDS011;49509;54.996;73.270;2022-10-04T23:30:03;8.75;;;7.75;;
63378;SDS011;49509;54.996;73.270;2022-10-04T23:32:37;9.00;;;8.00;;
63378;SDS011;49509;54.996;73.270;2022-10-04T23:35:03;5.75;;;5.50;;
63378;SDS011;49509;54.996;73.270;2022-10-04T23:37:31;9.25;;;8.00;;
63378;SDS011;49509;54.996;73.270;2022-10-04T23:39:58;13.75;;;9.25;;
63378;SDS011;49509;54.996;73.270;2022-10-04T23:42:28;8.00;;;8.00;;
63378;SDS011;49509;54.996;73.270;2022-10-04T23:44:57;6.00;;;6.00;;
63378;SDS011;49509;54.996;73.270;2022-10-04T23:47:33;8.00;;;8.00;;
63378;SDS011;49509;54.996;73.270;2022-10-04T23:50:06;9.25;;;8.25;;
63378;SDS011;49509;54.996;73.270;2022-10-04T23:52:43;9.75;;;9.75;;
63378;SDS011;49509;54.996;73.270;2022-10-04T23:55:21;7.25;;;7.25;;
63378;SDS011;49509;54.996;73.270;2022-10-04T23:57:49;6.75;;;6.75;;
